createdAt,value
2018-08-19T00:01:32.085Z,22.83
2018-08-19T00:04:00.706Z,23.13
2018-08-19T00:06:29.465Z,21.93
2018-08-19T00:09:02.365Z,20.70
2018-08-19T00:11:31.035Z,21.07
2018-08-19T00:13:59.773Z,21.53
2018-08-19T00:16:28.614Z,20.67
2018-08-19T00:18:57.384Z,20.87
2018-08-19T00:21:26.113Z,20.45
2018-08-19T00:23:54.813Z,19.07
2018-08-19T00:26:23.426Z,21.70
2018-08-19T00:28:52.303Z,22.57
2018-08-19T00:31:21.198Z,20.10
2018-08-19T00:33:49.768Z,26.23
2018-08-19T00:36:32.293Z,27.60
2018-08-19T00:39:01.033Z,29.50
2018-08-19T00:41:29.669Z,25.53
2018-08-19T00:43:58.297Z,30.13
2018-08-19T00:46:30.440Z,29.17
2018-08-19T00:49:00.754Z,29.07
2018-08-19T00:51:29.569Z,25.10
2018-08-19T00:53:58.619Z,26.87
2018-08-19T00:56:27.790Z,26.70
2018-08-19T00:58:56.504Z,25.30
2018-08-19T01:01:36.321Z,24.03
2018-08-19T01:04:07.186Z,24.23
2018-08-19T01:06:41.014Z,22.10
2018-08-19T01:09:10.514Z,25.00
2018-08-19T01:11:41.733Z,28.00
2018-08-19T01:14:12.664Z,25.43
2018-08-19T01:16:41.576Z,25.90
2018-08-19T01:19:10.968Z,26.00
2018-08-19T01:21:39.722Z,23.53
2018-08-19T01:24:10.813Z,24.07
2018-08-19T01:26:40.751Z,25.13
2018-08-19T01:29:10.477Z,25.87
2018-08-19T01:31:39.418Z,22.30
2018-08-19T01:34:11.532Z,23.27
2018-08-19T01:36:40.629Z,23.13
2018-08-19T01:39:11.258Z,23.17
2018-08-19T01:41:40.880Z,22.53
2018-08-19T01:44:13.018Z,21.87
2018-08-19T01:46:47.011Z,22.37
2018-08-19T01:49:16.014Z,21.20
2018-08-19T01:51:45.106Z,25.13
2018-08-19T01:54:19.985Z,27.67
2018-08-19T01:56:55.173Z,29.07
2018-08-19T01:59:31.903Z,24.73
2018-08-19T02:02:02.616Z,24.83
2018-08-19T02:04:32.379Z,22.93
2018-08-19T02:07:01.140Z,24.60
2018-08-19T02:09:29.845Z,28.00
2018-08-19T02:11:59.760Z,26.73
2018-08-19T02:14:28.447Z,21.67
2018-08-19T02:16:57.673Z,22.90
2018-08-19T02:19:26.294Z,25.73
2018-08-19T02:21:55.061Z,27.37
2018-08-19T02:24:23.790Z,26.83
2018-08-19T02:26:52.497Z,27.17
2018-08-19T02:29:33.591Z,27.47
2018-08-19T02:32:03.516Z,25.43
2018-08-19T02:34:34.605Z,25.27
2018-08-19T02:37:07.033Z,26.37
2018-08-19T02:39:38.234Z,23.07
2018-08-19T02:42:24.274Z,26.27
2018-08-19T02:44:55.235Z,22.93
2018-08-19T02:47:23.984Z,23.10
2018-08-19T02:49:53.038Z,24.10
2018-08-19T02:52:26.996Z,26.47
2018-08-19T02:54:56.582Z,28.80
2018-08-19T02:57:25.828Z,27.27
2018-08-19T02:59:54.486Z,27.67
2018-08-19T03:02:26.054Z,28.80
2018-08-19T03:04:55.594Z,29.67
2018-08-19T03:07:26.434Z,30.87
2018-08-19T03:10:10.800Z,29.97
2018-08-19T03:12:40.039Z,29.63
2018-08-19T03:15:10.848Z,30.70
2018-08-19T03:17:39.932Z,29.87
2018-08-19T03:20:13.084Z,30.83
2018-08-19T03:22:42.580Z,27.33
2018-08-19T03:25:11.904Z,26.80
2018-08-19T03:27:40.632Z,25.00
2018-08-19T03:30:11.365Z,27.27
2018-08-19T03:32:46.424Z,27.33
2018-08-19T03:35:17.411Z,28.83
2018-08-19T03:37:46.329Z,25.30
2018-08-19T03:40:15.105Z,28.07
2018-08-19T03:42:43.765Z,28.00
2018-08-19T03:45:17.614Z,29.87
2018-08-19T03:47:46.859Z,29.97
2018-08-19T03:50:21.817Z,30.10
2018-08-19T03:52:51.097Z,29.77
2018-08-19T03:55:25.376Z,30.47
2018-08-19T03:57:58.037Z,27.50
2018-08-19T04:00:28.078Z,28.37
2018-08-19T04:02:59.057Z,29.67
2018-08-19T04:05:40.224Z,28.13
2018-08-19T04:08:10.388Z,29.13
2018-08-19T04:10:40.388Z,27.87
2018-08-19T04:13:35.354Z,28.33
2018-08-19T04:16:05.224Z,28.27
2018-08-19T04:18:36.992Z,29.03
2018-08-19T04:21:08.236Z,31.70
2018-08-19T04:23:37.357Z,33.40
2018-08-19T04:26:06.730Z,34.73
2018-08-19T04:28:37.153Z,34.17
2018-08-19T04:31:11.867Z,36.10
2018-08-19T04:33:42.603Z,34.80
2018-08-19T04:36:12.909Z,31.90
2018-08-19T04:38:42.073Z,31.80
2018-08-19T04:41:11.057Z,30.43
2018-08-19T04:43:39.729Z,28.80
2018-08-19T04:46:08.484Z,29.43
2018-08-19T04:48:37.130Z,28.80
2018-08-19T04:51:05.931Z,31.27
2018-08-19T04:53:35.119Z,28.87
2018-08-19T04:56:03.920Z,28.20
2018-08-19T04:58:32.745Z,29.47
2018-08-19T05:01:01.521Z,29.43
2018-08-19T05:03:30.184Z,31.17
2018-08-19T05:06:00.296Z,31.30
2018-08-19T05:08:29.096Z,29.00
2018-08-19T05:10:59.033Z,27.87
2018-08-19T05:13:29.301Z,27.70
2018-08-19T05:15:58.243Z,28.63
2018-08-19T05:18:27.056Z,27.17
2018-08-19T05:21:02.738Z,28.03
2018-08-19T05:23:31.712Z,31.30
2018-08-19T05:26:00.480Z,31.97
2018-08-19T05:28:29.104Z,30.70
2018-08-19T05:30:57.737Z,28.20
2018-08-19T05:33:27.177Z,28.60
2018-08-19T05:35:55.778Z,26.90
2018-08-19T05:38:25.469Z,24.33
2018-08-19T05:40:59.794Z,24.47
2018-08-19T05:43:29.013Z,25.57
2018-08-19T05:45:58.927Z,26.47
2018-08-19T05:48:27.896Z,27.73
2018-08-19T05:50:56.971Z,25.73
2018-08-19T05:53:25.664Z,25.87
2018-08-19T05:55:54.624Z,25.83
2018-08-19T05:58:23.433Z,25.33
2018-08-19T06:00:59.421Z,24.93
2018-08-19T06:03:28.163Z,24.93
2018-08-19T06:05:57.518Z,25.17
2018-08-19T06:08:27.220Z,27.47
2018-08-19T06:10:55.955Z,25.67
2018-08-19T06:13:24.653Z,26.60
2018-08-19T06:15:53.304Z,27.03
2018-08-19T06:18:21.984Z,27.83
2018-08-19T06:20:50.685Z,26.47
2018-08-19T06:23:21.633Z,28.03
2018-08-19T06:25:50.288Z,28.30
2018-08-19T06:28:19.050Z,28.23
2018-08-19T06:30:47.630Z,29.53
2018-08-19T06:33:16.273Z,28.83
2018-08-19T06:35:44.876Z,28.90
2018-08-19T06:38:13.583Z,29.57
2018-08-19T06:40:42.709Z,29.20
2018-08-19T06:43:11.434Z,29.43
2018-08-19T06:45:40.262Z,29.23
2018-08-19T06:48:09.276Z,28.30
2018-08-19T06:50:37.993Z,27.43
2018-08-19T06:53:06.869Z,26.67
2018-08-19T06:55:35.593Z,25.93
2018-08-19T06:58:04.318Z,25.47
2018-08-19T07:00:33.402Z,23.47
2018-08-19T07:03:03.580Z,23.63
2018-08-19T07:05:33.169Z,22.97
2018-08-19T07:08:02.149Z,22.40
2018-08-19T07:10:38.896Z,20.93
2018-08-19T07:13:10.836Z,19.33
2018-08-19T07:15:41.009Z,17.00
2018-08-19T07:18:12.985Z,16.33
2018-08-19T07:20:42.910Z,15.57
2018-08-19T07:23:12.100Z,15.20
2018-08-19T07:25:42.454Z,13.60
2018-08-19T07:28:12.036Z,12.27
2018-08-19T07:30:41.140Z,9.57
2018-08-19T07:33:09.933Z,9.10
2018-08-19T07:35:38.701Z,9.77
2018-08-19T07:38:07.414Z,9.03
2018-08-19T07:40:36.085Z,8.60
2018-08-19T07:43:04.869Z,8.97
2018-08-19T07:45:33.563Z,8.03
2018-08-19T07:48:02.296Z,7.73
2018-08-19T07:50:31.997Z,7.47
2018-08-19T07:53:00.950Z,7.30
2018-08-19T07:55:29.657Z,6.80
2018-08-19T07:57:58.380Z,6.50
2018-08-19T08:00:32.165Z,7.10
2018-08-19T08:03:00.777Z,7.07
2018-08-19T08:06:01.099Z,5.80
2018-08-19T08:08:29.799Z,6.53
2018-08-19T08:10:58.561Z,6.50
2018-08-19T08:13:27.339Z,6.47
2018-08-19T08:15:57.375Z,6.90
2018-08-19T08:18:26.049Z,6.53
2018-08-19T08:21:00.553Z,6.40
2018-08-19T08:23:29.756Z,6.20
2018-08-19T08:25:58.424Z,6.60
2018-08-19T08:28:27.216Z,6.13
2018-08-19T08:30:55.949Z,6.63
2018-08-19T08:33:24.623Z,6.43
2018-08-19T08:35:57.252Z,6.47
2018-08-19T08:38:26.329Z,5.87
2018-08-19T08:40:55.228Z,5.93
2018-08-19T08:43:23.827Z,6.33
2018-08-19T08:45:55.059Z,6.50
2018-08-19T08:48:23.972Z,5.80
2018-08-19T08:50:52.634Z,6.57
2018-08-19T08:53:21.439Z,6.47
2018-08-19T08:55:57.425Z,6.37
2018-08-19T08:58:26.300Z,5.70
2018-08-19T09:00:55.108Z,6.03
2018-08-19T09:03:23.752Z,5.70
2018-08-19T09:05:54.129Z,5.90
2018-08-19T09:08:22.894Z,5.90
2018-08-19T09:10:52.082Z,6.20
2018-08-19T09:13:20.965Z,5.43
2018-08-19T09:15:49.681Z,5.27
2018-08-19T09:18:18.480Z,5.33
2018-08-19T09:20:47.069Z,5.73
2018-08-19T09:23:15.860Z,6.03
2018-08-19T09:25:44.726Z,5.60
2018-08-19T09:28:13.453Z,5.80
2018-08-19T09:30:43.557Z,5.97
2018-08-19T09:33:13.289Z,5.63
2018-08-19T09:35:43.080Z,6.03
2018-08-19T09:38:14.764Z,6.20
2018-08-19T09:40:43.974Z,5.77
2018-08-19T09:43:13.088Z,5.77
2018-08-19T09:45:42.242Z,6.17
2018-08-19T09:48:11.435Z,6.17
2018-08-19T09:50:41.301Z,5.87
2018-08-19T09:53:10.097Z,6.43
2018-08-19T09:55:39.672Z,6.10
2018-08-19T09:58:19.718Z,6.40
2018-08-19T10:00:55.787Z,6.00
2018-08-19T10:03:25.313Z,6.13
2018-08-19T10:05:54.045Z,6.17
2018-08-19T10:08:23.666Z,6.20
2018-08-19T10:10:53.022Z,5.93
2018-08-19T10:13:21.788Z,6.00
2018-08-19T10:15:50.574Z,6.10
2018-08-19T10:18:19.261Z,5.93
2018-08-19T10:20:48.077Z,5.90
2018-08-19T10:23:16.709Z,5.87
2018-08-19T10:25:46.618Z,6.40
2018-08-19T10:28:15.415Z,5.43
2018-08-19T10:30:49.228Z,5.60
2018-08-19T10:33:22.296Z,5.77
2018-08-19T10:35:51.679Z,5.30
2018-08-19T10:38:20.576Z,5.87
2018-08-19T10:40:58.007Z,5.30
2018-08-19T10:43:28.926Z,5.77
2018-08-19T10:45:58.416Z,5.50
2018-08-19T10:48:27.181Z,5.47
2018-08-19T10:50:55.978Z,5.40
2018-08-19T10:53:26.678Z,5.80
2018-08-19T10:55:57.912Z,5.30
2018-08-19T10:58:26.680Z,5.27
2018-08-19T11:00:55.380Z,5.70
2018-08-19T11:03:24.535Z,5.33
2018-08-19T11:05:54.699Z,5.20
2018-08-19T11:08:23.697Z,5.40
2018-08-19T11:10:52.356Z,5.20
2018-08-19T11:13:23.212Z,5.43
2018-08-19T11:15:53.037Z,5.57
2018-08-19T11:18:48.926Z,5.97
2018-08-19T11:21:25.640Z,5.33
2018-08-19T11:23:55.354Z,5.23
2018-08-19T11:26:25.185Z,5.08
2018-08-19T11:28:59.001Z,5.10
2018-08-19T11:31:30.664Z,5.22
2018-08-19T11:34:01.843Z,5.00
2018-08-19T11:36:47.792Z,4.85
2018-08-19T11:39:17.442Z,4.70
2018-08-19T11:41:46.245Z,4.70
2018-08-19T11:44:16.289Z,4.47
2018-08-19T11:46:45.038Z,4.67
2018-08-19T11:49:15.111Z,4.80
2018-08-19T11:51:57.186Z,4.85
2018-08-19T11:54:26.561Z,4.50
2018-08-19T11:57:02.755Z,4.50
2018-08-19T11:59:46.323Z,4.33
2018-08-19T12:02:24.277Z,4.40
2018-08-19T12:04:52.998Z,4.42
2018-08-19T12:07:21.667Z,4.50
2018-08-19T12:09:56.091Z,4.78
2018-08-19T12:12:42.105Z,4.62
2018-08-19T12:15:10.960Z,4.45
2018-08-19T12:17:39.642Z,4.60
2018-08-19T12:20:08.292Z,4.62
2018-08-19T12:22:37.054Z,4.50
2018-08-19T12:25:05.960Z,4.28
2018-08-19T12:27:34.717Z,5.10
2018-08-19T12:30:11.533Z,5.08
2018-08-19T12:32:40.249Z,4.47
2018-08-19T12:35:15.502Z,4.20
2018-08-19T12:37:44.285Z,4.65
2018-08-19T12:40:13.048Z,4.30
2018-08-19T12:42:47.625Z,4.58
2018-08-19T12:45:16.232Z,4.62
2018-08-19T12:47:44.933Z,4.50
2018-08-19T12:50:15.439Z,3.93
2018-08-19T12:52:44.253Z,4.87
2018-08-19T12:55:15.753Z,4.45
2018-08-19T12:57:45.043Z,4.12
2018-08-19T13:00:15.967Z,4.77
2018-08-19T13:02:47.831Z,4.53
2018-08-19T13:05:17.492Z,4.72
2018-08-19T13:07:46.320Z,5.00
2018-08-19T13:10:15.352Z,4.50
2018-08-19T13:12:49.189Z,4.65
2018-08-19T13:15:17.890Z,4.65
2018-08-19T13:17:46.693Z,4.65
2018-08-19T13:20:15.337Z,4.60
2018-08-19T13:22:51.152Z,4.65
2018-08-19T13:25:21.550Z,4.78
2018-08-19T13:27:50.328Z,4.47
2018-08-19T13:30:19.867Z,4.00
2018-08-19T13:32:49.042Z,4.17
2018-08-19T13:35:19.067Z,4.00
2018-08-19T13:37:47.733Z,4.25
2018-08-19T13:40:16.853Z,4.97
2018-08-19T13:42:45.521Z,4.47
2018-08-19T13:45:15.333Z,4.22
2018-08-19T13:47:46.474Z,4.22
2018-08-19T13:50:15.232Z,4.10
2018-08-19T13:52:44.632Z,4.15
2018-08-19T13:55:16.284Z,4.05
2018-08-19T13:57:44.873Z,4.12
2018-08-19T14:00:20.709Z,3.98
2018-08-19T14:02:49.890Z,4.25
2018-08-19T14:05:18.713Z,4.22
2018-08-19T14:07:47.318Z,4.08
2018-08-19T14:10:16.333Z,3.77
2018-08-19T14:12:45.062Z,4.12
2018-08-19T14:15:13.984Z,8.03
2018-08-19T14:17:42.846Z,4.10
2018-08-19T14:20:11.972Z,4.00
2018-08-19T14:22:41.821Z,4.15
2018-08-19T14:25:11.708Z,3.62
2018-08-19T14:27:40.385Z,4.25
2018-08-19T14:30:10.731Z,4.08
2018-08-19T14:32:41.405Z,4.30
2018-08-19T14:35:10.222Z,5.35
2018-08-19T14:37:40.182Z,4.30
2018-08-19T14:40:11.211Z,4.00
2018-08-19T14:42:40.127Z,3.98
2018-08-19T14:45:08.906Z,4.30
2018-08-19T14:47:37.600Z,4.40
2018-08-19T14:50:13.668Z,4.28
2018-08-19T14:52:42.324Z,4.08
2018-08-19T14:55:11.072Z,4.08
2018-08-19T14:57:39.724Z,4.58
2018-08-19T15:00:10.496Z,3.90
2018-08-19T15:02:39.343Z,4.30
2018-08-19T15:05:14.916Z,4.08
2018-08-19T15:07:43.710Z,4.62
2018-08-19T15:10:15.896Z,4.20
2018-08-19T15:12:44.536Z,4.20
2018-08-19T15:15:13.177Z,4.22
2018-08-19T15:17:46.209Z,5.10
2018-08-19T15:20:18.260Z,4.33
2018-08-19T15:22:47.078Z,4.17
2018-08-19T15:25:15.765Z,4.33
2018-08-19T15:27:49.940Z,4.37
2018-08-19T15:30:35.142Z,3.60
2018-08-19T15:33:04.079Z,4.15
2018-08-19T15:35:32.537Z,4.33
2018-08-19T15:38:01.138Z,3.60
2018-08-19T15:40:38.142Z,3.90
2018-08-19T15:43:07.033Z,3.77
2018-08-19T15:45:35.726Z,3.92
2018-08-19T15:48:05.189Z,3.92
2018-08-19T15:50:33.958Z,4.28
2018-08-19T15:53:03.903Z,4.05
2018-08-19T15:55:32.726Z,4.17
2018-08-19T15:58:03.119Z,3.90
2018-08-19T16:00:42.050Z,4.40
2018-08-19T16:03:12.157Z,4.35
2018-08-19T16:05:40.863Z,4.72
2018-08-19T16:08:09.632Z,4.20
2018-08-19T16:10:38.456Z,4.08
2018-08-19T16:13:10.003Z,4.12
2018-08-19T16:15:38.737Z,4.17
2018-08-19T16:18:07.917Z,4.30
2018-08-19T16:20:36.745Z,4.12
2018-08-19T16:23:06.353Z,3.90
2018-08-19T16:25:35.093Z,3.95
2018-08-19T16:28:04.878Z,3.83
2018-08-19T16:30:33.621Z,3.90
2018-08-19T16:33:02.316Z,4.25
2018-08-19T16:35:31.209Z,4.70
2018-08-19T16:37:59.865Z,4.10
2018-08-19T16:40:28.789Z,4.50
2018-08-19T16:42:57.820Z,4.22
2018-08-19T16:45:26.525Z,4.53
2018-08-19T16:47:55.494Z,4.40
2018-08-19T16:50:24.434Z,4.60
2018-08-19T16:52:53.037Z,4.67
2018-08-19T16:55:21.721Z,4.80
2018-08-19T16:57:50.415Z,4.70
2018-08-19T17:00:19.177Z,4.40
2018-08-19T17:02:47.888Z,4.90
2018-08-19T17:05:29.530Z,4.55
2018-08-19T17:07:58.249Z,4.62
2018-08-19T17:10:28.110Z,4.78
2018-08-19T17:12:57.641Z,5.00
2018-08-19T17:15:26.711Z,4.55
2018-08-19T17:17:55.628Z,4.85
2018-08-19T17:20:24.377Z,5.05
2018-08-19T17:22:53.031Z,5.00
2018-08-19T17:25:21.886Z,4.80
2018-08-19T17:27:51.507Z,5.15
2018-08-19T17:30:20.263Z,4.93
2018-08-19T17:33:03.016Z,5.20
2018-08-19T17:35:31.627Z,5.47
2018-08-19T17:38:00.435Z,5.73
2018-08-19T17:40:30.942Z,5.57
2018-08-19T17:43:00.222Z,5.67
2018-08-19T17:45:29.054Z,5.47
2018-08-19T17:47:57.825Z,5.70
2018-08-19T17:50:28.754Z,5.73
2018-08-19T17:52:58.648Z,6.87
2018-08-19T17:55:27.462Z,9.30
2018-08-19T17:57:57.986Z,8.43
2018-08-19T18:00:26.593Z,9.20
2018-08-19T18:02:55.359Z,10.33
2018-08-19T18:05:24.070Z,10.90
2018-08-19T18:07:53.814Z,8.60
2018-08-19T18:10:22.774Z,7.53
2018-08-19T18:12:51.974Z,6.47
2018-08-19T18:15:21.857Z,7.23
2018-08-19T18:18:01.746Z,9.57
2018-08-19T18:20:37.401Z,12.73
2018-08-19T18:23:13.074Z,16.10
2018-08-19T18:25:43.189Z,19.63
2018-08-19T18:28:17.031Z,18.70
2018-08-19T18:30:48.535Z,14.57
2018-08-19T18:33:17.205Z,10.93
2018-08-19T18:35:45.900Z,9.47
2018-08-19T18:38:25.457Z,8.03
2018-08-19T18:40:54.281Z,8.20
2018-08-19T18:43:23.913Z,9.00
2018-08-19T18:45:53.145Z,14.67
2018-08-19T18:48:22.481Z,15.57
2018-08-19T18:50:55.517Z,10.60
2018-08-19T18:53:25.061Z,8.70
2018-08-19T18:55:53.672Z,8.77
2018-08-19T18:58:22.229Z,8.97
2018-08-19T19:00:57.088Z,8.30
2018-08-19T19:03:26.086Z,10.43
2018-08-19T19:05:56.925Z,10.60
2018-08-19T19:08:25.704Z,10.00
2018-08-19T19:10:59.513Z,9.37
2018-08-19T19:13:30.531Z,8.97
2018-08-19T19:15:59.566Z,7.70
2018-08-19T19:18:29.591Z,8.70
2018-08-19T19:21:02.888Z,9.00
2018-08-19T19:23:39.579Z,8.37
2018-08-19T19:26:09.167Z,9.53
2018-08-19T19:28:38.278Z,8.77
2018-08-19T19:31:12.627Z,9.50
2018-08-19T19:33:41.596Z,9.23
2018-08-19T19:36:16.410Z,9.07
2018-08-19T19:38:56.588Z,9.47
2018-08-19T19:41:27.896Z,9.23
2018-08-19T19:43:56.914Z,8.20
2018-08-19T19:46:26.211Z,8.87
2018-08-19T19:48:55.454Z,8.83
2018-08-19T19:51:24.290Z,8.30
2018-08-19T19:53:52.968Z,8.93
2018-08-19T19:56:21.642Z,8.50
2018-08-19T19:58:50.947Z,9.07
2018-08-19T20:01:19.638Z,9.50
2018-08-19T20:03:52.827Z,9.20
2018-08-19T20:06:24.203Z,9.53
2018-08-19T20:08:53.702Z,9.03
2018-08-19T20:11:29.797Z,9.17
2018-08-19T20:14:00.028Z,9.70
2018-08-19T20:16:30.101Z,9.33
2018-08-19T20:18:58.968Z,8.30
2018-08-19T20:21:28.603Z,8.73
2018-08-19T20:23:58.520Z,8.23
2018-08-19T20:26:28.248Z,9.90
2018-08-19T20:28:58.255Z,9.57
2018-08-19T20:31:27.920Z,8.60
2018-08-19T20:33:56.899Z,9.07
2018-08-19T20:36:25.645Z,9.27
2018-08-19T20:38:54.364Z,8.90
2018-08-19T20:41:23.269Z,9.77
2018-08-19T20:43:52.977Z,10.17
2018-08-19T20:46:21.645Z,9.73
2018-08-19T20:48:50.336Z,9.03
2018-08-19T20:51:19.772Z,8.53
2018-08-19T20:53:48.660Z,9.47
2018-08-19T20:56:17.315Z,9.30
2018-08-19T20:58:46.109Z,9.63
2018-08-19T21:01:20.040Z,9.50
2018-08-19T21:03:48.717Z,10.10
2018-08-19T21:06:17.285Z,9.23
2018-08-19T21:08:45.912Z,9.97
2018-08-19T21:11:14.538Z,9.33
2018-08-19T21:13:43.115Z,9.97
2018-08-19T21:16:11.880Z,9.30
2018-08-19T21:18:40.535Z,9.60
2018-08-19T21:21:09.140Z,9.80
2018-08-19T21:23:38.801Z,10.37
2018-08-19T21:26:07.737Z,9.63
2018-08-19T21:28:36.439Z,9.93
2018-08-19T21:31:05.128Z,9.50
2018-08-19T21:33:33.826Z,9.33
2018-08-19T21:36:02.550Z,9.80
2018-08-19T21:38:31.254Z,9.60
2018-08-19T21:40:59.941Z,10.13
2018-08-19T21:43:30.409Z,9.80
2018-08-19T21:46:00.577Z,9.97
2018-08-19T21:48:29.245Z,9.63
2018-08-19T21:50:57.848Z,9.80
2018-08-19T21:53:26.533Z,9.17
2018-08-19T21:55:55.180Z,10.30
2018-08-19T21:58:23.884Z,9.83
2018-08-19T22:01:00.181Z,9.63
2018-08-19T22:03:34.230Z,8.67
2018-08-19T22:06:08.592Z,9.57
2018-08-19T22:08:37.229Z,10.10
2018-08-19T22:11:05.913Z,9.40
2018-08-19T22:13:36.658Z,9.20
2018-08-19T22:16:06.868Z,9.40
2018-08-19T22:18:36.902Z,9.30
2018-08-19T22:21:14.224Z,9.37
2018-08-19T22:23:44.381Z,9.30
2018-08-19T22:26:14.373Z,9.00
2018-08-19T22:28:43.360Z,9.40
2018-08-19T22:31:23.648Z,8.80
2018-08-19T22:33:54.601Z,8.87
2018-08-19T22:36:23.400Z,9.03
2018-08-19T22:38:52.958Z,8.77
2018-08-19T22:41:28.538Z,8.80
2018-08-19T22:43:57.778Z,9.00
2018-08-19T22:46:27.131Z,9.13
2018-08-19T22:48:56.336Z,9.10
2018-08-19T22:51:25.153Z,9.00
2018-08-19T22:53:55.325Z,8.63
2018-08-19T22:56:24.241Z,8.67
2018-08-19T22:58:52.901Z,8.40
2018-08-19T23:01:21.976Z,8.10
2018-08-19T23:03:59.512Z,8.43
2018-08-19T23:06:28.886Z,8.90
2018-08-19T23:08:58.280Z,8.40
2018-08-19T23:11:48.324Z,9.10
2018-08-19T23:14:28.092Z,8.77
2018-08-19T23:16:56.711Z,9.17
2018-08-19T23:19:25.428Z,8.40
2018-08-19T23:21:54.140Z,8.60
2018-08-19T23:24:23.461Z,8.87
2018-08-19T23:26:52.114Z,7.93
2018-08-19T23:29:20.799Z,8.37
2018-08-19T23:31:49.528Z,8.60
2018-08-19T23:34:18.097Z,9.10
2018-08-19T23:36:46.896Z,8.87
2018-08-19T23:39:15.523Z,9.40
2018-08-19T23:41:44.193Z,9.13
2018-08-19T23:44:13.889Z,8.60
2018-08-19T23:46:42.549Z,8.97
2018-08-19T23:49:11.273Z,8.93
2018-08-19T23:51:40.241Z,8.87
2018-08-19T23:54:08.961Z,9.13
2018-08-19T23:56:37.726Z,8.70
2018-08-19T23:59:06.427Z,9.03
